Jamestown, ND (58401)

6:45 AM CDT on July 29, 2015 (GMT -0500)
Leapaldt Addition | | Change Station
CLOSE
Current Station
Personal Weather Station
Location: Jamestown, ND
Elevation: 1486 ft
Nearby Weather Stations
Active Advisory: Wind Advisory Active Notice: Public Information Statement

Elev 1486 ft 46.93 °N, 98.69 °W | Updated 3 minutes ago

Clear
Clear
63.9 °F
Feels Like 63.9 °F
N
10.9
Wind Variable Wind from SW

Today
High -- | Low -- °F
--% Chance of Precip.
Yesterday
High -- | Low -- °F
Precip. -- in
6:10 AM 9:11 PM
Waxing Gibbous, 95% visible
Pressure 29.83 in
Visibility 10.0 miles
Clouds Clear
Dew Point 52 °F
Humidity 65%
Rainfall 0.00 in
Snow Depth Not available.
UV 0 out of 12
Pollen 8.20 out of 12
Air Quality Not available.
Flu Activity Not available.
METAR KJMS 291056Z AUTO 27019G27KT 10SM CLR 17/09 A2984 RMK AO2 PK WND 27029/1002 SLP100 T01670094

More Conditions Fewer Conditions

Pressure 29.83 in
Visibility 10.0 miles
Clouds Clear
Dew Point 52 °F
Humidity 65%
Rainfall 0.00 in
Snow Depth Not available.
UV 0 out of 12
Pollen 8.20 out of 12
Air Quality Not available.
Flu Activity Not available.
METAR KJMS 291056Z AUTO 27019G27KT 10SM CLR 17/09 A2984 RMK AO2 PK WND 27029/1002 SLP100 T01670094

More Conditions Fewer Conditions

10-Day Weather Forecast

×

Almanac

Astronomy

Jul. 29, 2015 Rise Set
Actual Time
Civil Twilight
Nautical Twilight
Astronomical Twilight
Moon
Length of Visible Light
Length of Day
Tomorrow will be .
, % of the Moon is Illuminated

Today's Extremes

State Highs State Lows

Community

WunderPhotos

Upload Photos

1,842,075 photos uploaded!

WunderBlogs® & News

Nearby

Air Quality

  Air Quality AQ Index Pollutant
Not available.

Snow Depth

Station Depth Elevation

Earthquake Activity

City Distance Mag. Time & Date
Minimum magnitude displayed is 2.5.

Coastal Water Temperatures

Place Temperature

Stations

Nearby Weather Stations

Station Location Temp. Windchill Dew Point Humidity Wind Precip. Elev Updated Type
                   
Wind Advisory
Statement as of 2:53 AM CDT on July 29, 2015

... Wind Advisory remains in effect until 7 PM CDT this evening...

* timing... through early Wednesday evening.

* Winds... west winds sustained at 30 mph with gusts up to 45 mph.

* Impacts... travel will be hazardous.

Precautionary/preparedness actions...

A Wind Advisory means that sustained winds of 30 mph are
expected. Winds this strong can make driving difficult...
especially for high profile vehicles. Use extra caution.



KS/jjs